Time;durP1;ratioP1;P1;durP2;ratioP2;P2;SDS_P1;SDS_P2;PMS_P1;PMS_P2;Temp;Humidity;BMP_temperature;BMP_pressure;BME280_temperature;BME280_humidity;BME280_pressure;Samples;Min_cycle;Max_cycle;Signal;HPM_P1;HPM_P2
2022/05/14 00:02:43;;;;;;;17.13;9.35;;;;;;;;;;6261612;28;20045;-59
2022/05/14 00:05:44;;;;;;;13.70;8.90;;;;;;;;;;6262049;28;20064;-59
2022/05/14 00:08:45;;;;;;;13.95;8.68;;;;;;;;;;6256670;28;20139;-59
2022/05/14 00:15:06;;;;;;;12.32;8.90;;;;;;;;;;6260247;28;20041;-59
2022/05/14 00:18:09;;;;;;;14.40;8.93;;;;;;;;;;6266573;28;20156;-59
2022/05/14 00:21:09;;;;;;;13.57;9.30;;;;;;;;;;6260398;28;20045;-58
2022/05/14 00:24:10;;;;;;;11.55;8.98;;;;;;;;;;6266793;28;20048;-59
2022/05/14 00:27:11;;;;;;;13.27;9.57;;;;;;;;;;6259034;28;20147;-58
2022/05/14 00:30:13;;;;;;;14.07;9.55;;;;;;;;;;6264539;28;20049;-59
2022/05/14 00:33:14;;;;;;;17.60;9.82;;;;;;;;;;6263722;28;20151;-57
2022/05/14 00:36:15;;;;;;;20.95;9.18;;;;;;;;;;6257810;28;20182;-56
2022/05/14 00:39:15;;;;;;;15.00;9.65;;;;;;;;;;6260401;28;20488;-56
2022/05/14 00:42:16;;;;;;;13.27;9.13;;;;;;;;;;6259096;28;20049;-59
2022/05/14 00:45:17;;;;;;;14.18;9.70;;;;;;;;;;6263512;28;20155;-59
2022/05/14 00:48:18;;;;;;;13.77;9.93;;;;;;;;;;6262952;28;20170;-57
2022/05/14 00:51:27;;;;;;;16.77;9.57;;;;;;;;;;6263941;28;20084;-58
2022/05/14 00:54:36;;;;;;;14.80;10.07;;;;;;;;;;6266536;28;20443;-58
2022/05/14 00:57:39;;;;;;;14.57;9.60;;;;;;;;;;6263665;28;20095;-58
2022/05/14 01:00:40;;;;;;;14.45;9.15;;;;;;;;;;6261653;28;20049;-57
2022/05/14 01:03:41;;;;;;;14.68;9.45;;;;;;;;;;6261981;28;20041;-58
2022/05/14 01:06:51;;;;;;;17.52;9.80;;;;;;;;;;6261432;28;20084;-55
2022/05/14 01:09:58;;;;;;;17.15;10.00;;;;;;;;;;6265973;28;20480;-58
2022/05/14 01:13:00;;;;;;;13.52;9.48;;;;;;;;;;6261526;28;20132;-58
2022/05/14 01:16:03;;;;;;;15.82;10.88;;;;;;;;;;6262603;28;20048;-58
2022/05/14 01:19:05;;;;;;;15.27;10.50;;;;;;;;;;6259443;28;20140;-57
2022/05/14 01:22:11;;;;;;;14.23;10.32;;;;;;;;;;6262873;28;20498;-56
2022/05/14 01:29:13;;;;;;;16.85;10.23;;;;;;;;;;6265937;28;20499;-57
2022/05/14 01:32:14;;;;;;;16.27;10.00;;;;;;;;;;6260158;28;20574;-57
2022/05/14 01:35:16;;;;;;;12.68;9.45;;;;;;;;;;6259883;28;20052;-57
2022/05/14 01:38:19;;;;;;;15.80;10.10;;;;;;;;;;6263444;28;20068;-56
2022/05/14 01:41:19;;;;;;;;;;;;;;;;;;6264992;28;20041;-55
2022/05/14 01:44:21;;;;;;;15.32;10.02;;;;;;;;;;6261072;28;19983;-57
2022/05/14 01:47:21;;;;;;;12.90;9.23;;;;;;;;;;6258858;28;20075;-56
2022/05/14 01:50:22;;;;;;;14.35;10.20;;;;;;;;;;6264217;28;20037;-58
2022/05/14 01:53:22;;;;;;;17.83;10.50;;;;;;;;;;6258591;28;20127;-57
2022/05/14 01:56:23;;;;;;;14.88;9.68;;;;;;;;;;6265264;28;20559;-58
2022/05/14 01:59:25;;;;;;;14.00;10.15;;;;;;;;;;6262233;28;20047;-57
2022/05/14 02:02:26;;;;;;;;;;;;;;;;;;6263778;28;20049;-57
2022/05/14 02:05:26;;;;;;;15.65;9.88;;;;;;;;;;6260945;28;20035;-59
2022/05/14 02:08:27;;;;;;;17.48;10.65;;;;;;;;;;6260642;28;20052;-56
2022/05/14 02:11:28;;;;;;;17.52;11.20;;;;;;;;;;6262196;28;20126;-58
2022/05/14 02:14:30;;;;;;;12.88;10.35;;;;;;;;;;6262323;28;20056;-58
2022/05/14 02:17:30;;;;;;;14.20;10.50;;;;;;;;;;6260670;28;20053;-59
2022/05/14 02:20:31;;;;;;;17.27;10.05;;;;;;;;;;6255132;28;20392;-58
2022/05/14 02:23:32;;;;;;;15.73;10.32;;;;;;;;;;6258359;28;20071;-58
2022/05/14 02:26:33;;;;;;;15.80;10.23;;;;;;;;;;6259299;28;20068;-58
2022/05/14 02:29:53;;;;;;;13.27;9.95;;;;;;;;;;6258775;28;20618;-58
2022/05/14 02:32:54;;;;;;;13.88;9.85;;;;;;;;;;6260342;28;20048;-58
2022/05/14 02:35:55;;;;;;;14.55;10.18;;;;;;;;;;6260792;28;20467;-59
2022/05/14 02:38:56;;;;;;;13.70;9.85;;;;;;;;;;6262085;28;20095;-57
2022/05/14 02:41:56;;;;;;;13.50;9.85;;;;;;;;;;6260208;28;20056;-58
2022/05/14 02:44:57;;;;;;;15.20;9.70;;;;;;;;;;6264188;28;20047;-58
2022/05/14 02:47:57;;;;;;;16.58;10.93;;;;;;;;;;6259475;28;20076;-58
2022/05/14 02:50:58;;;;;;;16.10;10.00;;;;;;;;;;6262418;28;20049;-58
2022/05/14 02:53:59;;;;;;;14.77;10.18;;;;;;;;;;6259830;28;20045;-58
2022/05/14 02:56:59;;;;;;;16.85;10.52;;;;;;;;;;6257726;28;20052;-58
2022/05/14 03:00:01;;;;;;;14.45;10.45;;;;;;;;;;6262067;28;20059;-57
2022/05/14 03:03:02;;;;;;;15.60;9.95;;;;;;;;;;6261493;28;20426;-57
2022/05/14 03:06:02;;;;;;;13.68;10.20;;;;;;;;;;6258741;28;20148;-59
2022/05/14 03:09:03;;;;;;;15.95;10.55;;;;;;;;;;6262459;28;20056;-59
2022/05/14 03:12:05;;;;;;;14.73;11.07;;;;;;;;;;6259326;28;20652;-58
2022/05/14 03:15:09;;;;;;;15.90;10.77;;;;;;;;;;6258715;28;20865;-58
2022/05/14 03:18:09;;;;;;;16.08;10.77;;;;;;;;;;6259437;28;20053;-57
2022/05/14 03:21:10;;;;;;;17.15;10.95;;;;;;;;;;6258334;28;20040;-58
2022/05/14 03:24:11;;;;;;;15.48;11.10;;;;;;;;;;6261282;28;20045;-58
2022/05/14 03:27:12;;;;;;;19.23;11.48;;;;;;;;;;6263312;28;20059;-58
2022/05/14 03:30:13;;;;;;;17.43;11.57;;;;;;;;;;6257840;28;20478;-59
2022/05/14 03:33:14;;;;;;;16.85;11.43;;;;;;;;;;6259334;28;20083;-57
2022/05/14 03:36:14;;;;;;;17.90;10.85;;;;;;;;;;6260653;28;20136;-58
2022/05/14 03:39:15;;;;;;;18.25;11.32;;;;;;;;;;6258557;28;20132;-58
2022/05/14 03:42:16;;;;;;;20.27;11.88;;;;;;;;;;6259833;28;20048;-58
2022/05/14 03:45:17;;;;;;;18.48;11.27;;;;;;;;;;6258329;28;20115;-58
2022/05/14 03:48:18;;;;;;;20.52;11.73;;;;;;;;;;6261278;28;20084;-56
2022/05/14 03:51:18;;;;;;;21.52;11.82;;;;;;;;;;6259853;28;20094;-58
2022/05/14 03:54:19;;;;;;;16.40;11.52;;;;;;;;;;6260519;28;20496;-58
2022/05/14 03:57:20;;;;;;;18.77;11.32;;;;;;;;;;6258651;28;20075;-58
2022/05/14 04:00:20;;;;;;;20.63;10.85;;;;;;;;;;6263702;28;20047;-57
2022/05/14 04:03:21;;;;;;;17.70;10.90;;;;;;;;;;6258210;28;20045;-57
2022/05/14 04:06:21;;;;;;;22.77;11.27;;;;;;;;;;6259975;28;20045;-58
2022/05/14 04:09:22;;;;;;;23.35;11.38;;;;;;;;;;6258417;28;20045;-58
2022/05/14 04:12:23;;;;;;;25.20;12.50;;;;;;;;;;6255077;28;20393;-59
2022/05/14 04:15:24;;;;;;;20.70;11.50;;;;;;;;;;6263660;28;20041;-57
2022/05/14 04:18:26;;;;;;;18.02;11.45;;;;;;;;;;6262735;28;20128;-57
2022/05/14 04:21:27;;;;;;;18.37;12.17;;;;;;;;;;6265508;28;20427;-58
2022/05/14 04:24:28;;;;;;;26.05;14.18;;;;;;;;;;6260687;28;20199;-55
2022/05/14 04:27:28;;;;;;;19.50;13.87;;;;;;;;;;6261863;28;20151;-56
2022/05/14 04:30:29;;;;;;;19.58;13.00;;;;;;;;;;6261679;28;20503;-57
2022/05/14 04:33:30;;;;;;;20.52;12.75;;;;;;;;;;6262464;28;20041;-57
2022/05/14 04:36:31;;;;;;;16.40;11.75;;;;;;;;;;6260786;28;20164;-58
2022/05/14 04:39:31;;;;;;;18.07;12.07;;;;;;;;;;6267674;28;20048;-59
2022/05/14 04:42:32;;;;;;;18.85;11.65;;;;;;;;;;6267640;28;20044;-58
2022/05/14 04:45:33;;;;;;;22.30;11.02;;;;;;;;;;6266975;28;20044;-58
2022/05/14 04:48:34;;;;;;;20.95;11.85;;;;;;;;;;6264566;28;20576;-58
2022/05/14 04:51:35;;;;;;;15.40;10.95;;;;;;;;;;6261232;28;20499;-58
2022/05/14 04:54:36;;;;;;;17.27;10.85;;;;;;;;;;6266619;28;20052;-58
2022/05/14 04:57:38;;;;;;;18.60;10.30;;;;;;;;;;6267155;28;20049;-57
2022/05/14 05:00:38;;;;;;;18.10;10.52;;;;;;;;;;6260230;28;20052;-56
2022/05/14 05:03:39;;;;;;;19.95;10.35;;;;;;;;;;6264747;28;20041;-58
2022/05/14 05:06:39;;;;;;;15.85;9.90;;;;;;;;;;6262588;28;20190;-58
2022/05/14 05:09:40;;;;;;;17.50;9.63;;;;;;;;;;6262907;28;20132;-59
2022/05/14 05:12:41;;;;;;;16.80;9.25;;;;;;;;;;6262573;28;20041;-58
2022/05/14 05:15:42;;;;;;;17.48;9.43;;;;;;;;;;6263416;28;20051;-56
2022/05/14 05:18:43;;;;;;;13.77;8.97;;;;;;;;;;6262101;28;20052;-58
2022/05/14 05:21:44;;;;;;;14.43;9.68;;;;;;;;;;6263016;28;20060;-57
2022/05/14 05:24:44;;;;;;;12.48;8.18;;;;;;;;;;6261754;28;20453;-58
2022/05/14 05:27:45;;;;;;;14.90;8.23;;;;;;;;;;6258351;28;20049;-56
2022/05/14 05:30:46;;;;;;;12.63;8.15;;;;;;;;;;6255208;28;20654;-57
2022/05/14 05:33:47;;;;;;;11.70;7.57;;;;;;;;;;6249157;28;20405;-56
2022/05/14 05:36:47;;;;;;;14.77;7.78;;;;;;;;;;6260514;28;20081;-58
2022/05/14 05:39:48;;;;;;;18.25;8.23;;;;;;;;;;6263328;28;20886;-58
2022/05/14 05:42:49;;;;;;;12.48;7.38;;;;;;;;;;6251742;28;20055;-55
2022/05/14 05:45:50;;;;;;;13.43;6.28;;;;;;;;;;6242177;28;20045;-58
2022/05/14 05:48:50;;;;;;;12.27;6.28;;;;;;;;;;6243662;28;20145;-59
2022/05/14 05:51:51;;;;;;;12.60;5.88;;;;;;;;;;6245566;28;20037;-58
2022/05/14 05:58:11;;;;;;;10.98;5.10;;;;;;;;;;6247014;28;20056;-58
2022/05/14 06:01:12;;;;;;;8.48;4.57;;;;;;;;;;6253614;28;20761;-56
2022/05/14 06:04:13;;;;;;;12.13;4.55;;;;;;;;;;6251451;28;20122;-56
2022/05/14 06:07:14;;;;;;;12.45;6.53;;;;;;;;;;6250660;28;20053;-57
2022/05/14 06:10:18;;;;;;;9.50;5.70;;;;;;;;;;6247659;28;20048;-60
2022/05/14 06:13:19;;;;;;;10.70;5.35;;;;;;;;;;6246867;28;20440;-64
2022/05/14 06:16:19;;;;;;;8.05;5.30;;;;;;;;;;6247536;28;20048;-59
2022/05/14 06:19:20;;;;;;;11.25;5.43;;;;;;;;;;6246374;28;20464;-57
2022/05/14 06:22:21;;;;;;;11.27;5.65;;;;;;;;;;6248250;28;20049;-59
2022/05/14 06:25:22;;;;;;;8.73;5.88;;;;;;;;;;6260008;28;20043;-60
2022/05/14 06:28:22;;;;;;;8.00;5.50;;;;;;;;;;6264814;28;20610;-59
2022/05/14 06:31:23;;;;;;;12.23;5.90;;;;;;;;;;6265584;28;20131;-60
2022/05/14 06:34:24;;;;;;;11.48;5.32;;;;;;;;;;6253185;28;20067;-58
2022/05/14 06:37:25;;;;;;;7.95;3.45;;;;;;;;;;6262201;28;20131;-54
2022/05/14 06:40:26;;;;;;;7.47;3.42;;;;;;;;;;6263551;28;20407;-57
2022/05/14 06:43:27;;;;;;;7.97;3.50;;;;;;;;;;6260506;28;20044;-58
2022/05/14 06:46:28;;;;;;;8.88;3.40;;;;;;;;;;6250398;28;20814;-60
2022/05/14 06:49:28;;;;;;;9.27;3.72;;;;;;;;;;6247357;28;20045;-60
2022/05/14 06:52:29;;;;;;;6.20;3.08;;;;;;;;;;6249730;28;20045;-60
2022/05/14 06:55:36;;;;;;;7.47;3.70;;;;;;;;;;6239332;28;20059;-55
2022/05/14 06:58:39;;;;;;;9.27;3.50;;;;;;;;;;6248701;28;20075;-57
2022/05/14 07:01:43;;;;;;;5.25;3.17;;;;;;;;;;6252333;28;20175;-57
2022/05/14 07:08:04;;;;;;;6.88;3.15;;;;;;;;;;6253438;28;20063;-58
2022/05/14 07:11:07;;;;;;;7.57;3.53;;;;;;;;;;6256512;28;20482;-55
2022/05/14 07:14:10;;;;;;;8.48;4.43;;;;;;;;;;6250545;28;20079;-56
2022/05/14 07:17:11;;;;;;;9.27;3.80;;;;;;;;;;6253727;28;20095;-57
2022/05/14 07:20:12;;;;;;;6.90;3.50;;;;;;;;;;6251471;28;20049;-58
2022/05/14 07:23:13;;;;;;;8.57;3.70;;;;;;;;;;6252669;28;20099;-56
2022/05/14 07:26:13;;;;;;;6.28;3.50;;;;;;;;;;6250237;28;20077;-58
2022/05/14 07:29:19;;;;;;;7.47;3.58;;;;;;;;;;6245743;28;20592;-60
2022/05/14 07:32:20;;;;;;;11.25;3.92;;;;;;;;;;6232122;28;20094;-58
2022/05/14 07:35:20;;;;;;;8.20;3.90;;;;;;;;;;6240126;28;20118;-57
2022/05/14 07:38:21;;;;;;;9.15;4.15;;;;;;;;;;6238705;28;20045;-58
2022/05/14 07:41:22;;;;;;;11.23;4.77;;;;;;;;;;6239416;28;20546;-58
2022/05/14 07:44:28;;;;;;;6.28;3.72;;;;;;;;;;6236810;28;20056;-58
2022/05/14 07:47:30;;;;;;;8.57;3.30;;;;;;;;;;6240043;28;20145;-58
2022/05/14 07:50:31;;;;;;;12.48;4.20;;;;;;;;;;6244641;28;20176;-58
2022/05/14 07:53:32;;;;;;;8.87;4.23;;;;;;;;;;6243583;28;20154;-58
2022/05/14 07:56:33;;;;;;;6.47;3.95;;;;;;;;;;6249927;28;20048;-58
2022/05/14 07:59:35;;;;;;;10.97;4.67;;;;;;;;;;6249377;28;20059;-58
2022/05/14 08:02:35;;;;;;;7.43;3.88;;;;;;;;;;6246708;28;20295;-59
2022/05/14 08:05:36;;;;;;;8.27;4.03;;;;;;;;;;6251240;28;20041;-58
2022/05/14 08:08:37;;;;;;;6.75;3.53;;;;;;;;;;6248887;28;20048;-59
2022/05/14 08:11:38;;;;;;;9.85;4.20;;;;;;;;;;6247636;28;20047;-58
2022/05/14 08:14:42;;;;;;;10.05;3.65;;;;;;;;;;6247645;28;20049;-59
2022/05/14 08:17:44;;;;;;;10.50;4.35;;;;;;;;;;6248467;28;20139;-58
2022/05/14 08:20:45;;;;;;;7.00;3.45;;;;;;;;;;6248923;28;20085;-59
2022/05/14 08:27:09;;;;;;;7.78;3.70;;;;;;;;;;6245508;28;19924;-59
2022/05/14 08:30:22;;;;;;;8.38;3.70;;;;;;;;;;6241850;28;20088;-59
2022/05/14 08:33:23;;;;;;;10.60;3.40;;;;;;;;;;6241838;28;20056;-59
2022/05/14 08:36:24;;;;;;;8.07;3.30;;;;;;;;;;6241231;28;20079;-59
2022/05/14 08:39:27;;;;;;;9.35;3.58;;;;;;;;;;6249817;28;20048;-59
2022/05/14 08:42:30;;;;;;;5.18;3.78;;;;;;;;;;6241436;28;20176;-59
2022/05/14 08:45:36;;;;;;;7.80;3.40;;;;;;;;;;6247283;28;20052;-60
2022/05/14 08:48:38;;;;;;;12.07;3.60;;;;;;;;;;6239141;28;20090;-59
2022/05/14 08:51:44;;;;;;;7.95;3.35;;;;;;;;;;6249140;28;20048;-59
2022/05/14 08:54:44;;;;;;;8.98;3.47;;;;;;;;;;6244271;28;20635;-59
2022/05/14 08:58:01;;;;;;;7.97;3.30;;;;;;;;;;6242898;28;20049;-59
2022/05/14 09:01:05;;;;;;;6.82;3.50;;;;;;;;;;6247006;28;20248;-59
2022/05/14 09:04:09;;;;;;;8.38;3.55;;;;;;;;;;6244220;28;20053;-59
2022/05/14 09:07:09;;;;;;;7.90;3.40;;;;;;;;;;6244982;28;20476;-59
2022/05/14 09:10:40;;;;;;;6.05;3.05;;;;;;;;;;6245997;28;20552;-59
2022/05/14 09:13:54;;;;;;;8.77;3.90;;;;;;;;;;6229134;28;20171;-59
2022/05/14 09:17:29;;;;;;;9.65;3.50;;;;;;;;;;6245486;28;20106;-60
2022/05/14 09:20:41;;;;;;;6.05;2.97;;;;;;;;;;6206613;28;20077;-59
2022/05/14 09:23:45;;;;;;;5.90;3.20;;;;;;;;;;6240533;28;20049;-59
2022/05/14 09:26:46;;;;;;;8.70;3.25;;;;;;;;;;6246504;28;20104;-59
2022/05/14 09:29:52;;;;;;;6.47;2.95;;;;;;;;;;6244604;28;20111;-59
2022/05/14 09:32:55;;;;;;;7.53;3.00;;;;;;;;;;6244675;28;20076;-58
2022/05/14 09:36:01;;;;;;;6.37;2.93;;;;;;;;;;6246175;28;20057;-59
2022/05/14 09:39:07;;;;;;;6.97;3.10;;;;;;;;;;6243946;28;20053;-58
2022/05/14 09:42:40;;;;;;;6.35;2.97;;;;;;;;;;6239216;28;20045;-58
2022/05/14 09:46:03;;;;;;;5.13;2.78;;;;;;;;;;6243311;28;20516;-59
2022/05/14 09:49:06;;;;;;;9.70;3.08;;;;;;;;;;6248532;28;20481;-59
2022/05/14 09:52:13;;;;;;;8.05;3.58;;;;;;;;;;6231507;28;20040;-58
2022/05/14 09:55:14;;;;;;;6.95;3.30;;;;;;;;;;6246617;28;20053;-59
2022/05/14 09:58:48;;;;;;;6.45;3.03;;;;;;;;;;6242147;28;20092;-58
2022/05/14 10:02:06;;;;;;;6.03;2.97;;;;;;;;;;6244847;28;20049;-56
2022/05/14 10:05:45;;;;;;;10.35;3.58;;;;;;;;;;6271014;28;20145;-58
2022/05/14 10:08:46;;;;;;;7.07;3.50;;;;;;;;;;6250199;28;20168;-58
2022/05/14 10:11:54;;;;;;;9.23;4.03;;;;;;;;;;6244821;28;20160;-58
2022/05/14 10:15:31;;;;;;;9.63;3.65;;;;;;;;;;6246695;28;20113;-58
2022/05/14 10:18:58;;;;;;;7.68;3.50;;;;;;;;;;6242751;28;20044;-58
2022/05/14 10:22:07;;;;;;;6.07;3.33;;;;;;;;;;6236644;28;20083;-58
2022/05/14 10:28:55;;;;;;;14.10;3.67;;;;;;;;;;6239267;28;20934;-57
2022/05/14 10:32:06;;;;;;;13.57;3.58;;;;;;;;;;6244640;28;20151;-58
2022/05/14 10:35:24;;;;;;;10.95;4.55;;;;;;;;;;6245787;28;20044;-58
2022/05/14 10:38:34;;;;;;;7.13;3.80;;;;;;;;;;6238627;28;20581;-59
2022/05/14 10:41:41;;;;;;;7.18;3.72;;;;;;;;;;6242928;28;20062;-58
2022/05/14 10:44:57;;;;;;;8.45;4.20;;;;;;;;;;6248687;28;20076;-59
2022/05/14 10:48:00;;;;;;;8.40;4.28;;;;;;;;;;6249423;28;20061;-58
2022/05/14 10:51:02;;;;;;;9.32;4.00;;;;;;;;;;6251627;28;20045;-69
2022/05/14 10:54:03;;;;;;;10.27;4.97;;;;;;;;;;6253393;28;20060;-61
2022/05/14 10:57:13;;;;;;;7.55;4.10;;;;;;;;;;6253813;28;20053;-56
2022/05/14 11:00:29;;;;;;;12.95;4.45;;;;;;;;;;6256535;28;20057;-53
2022/05/14 11:03:32;;;;;;;7.45;4.18;;;;;;;;;;6252125;28;20748;-57
2022/05/14 11:06:46;;;;;;;9.55;4.30;;;;;;;;;;6254005;28;20048;-61
2022/05/14 11:09:49;;;;;;;8.02;4.20;;;;;;;;;;6254165;28;21333;-61
2022/05/14 11:12:50;;;;;;;8.07;4.03;;;;;;;;;;6243369;28;20240;-62
2022/05/14 11:16:20;;;;;;;13.95;6.57;;;;;;;;;;6237031;28;20064;-61
2022/05/14 11:19:31;;;;;;;8.88;5.20;;;;;;;;;;6240979;28;20084;-61
2022/05/14 11:22:45;;;;;;;12.40;4.80;;;;;;;;;;6247470;28;20146;-61
2022/05/14 11:25:45;;;;;;;7.00;3.97;;;;;;;;;;6244326;28;20658;-61
2022/05/14 11:28:56;;;;;;;10.73;4.60;;;;;;;;;;6246248;28;20056;-60
2022/05/14 11:32:08;;;;;;;8.50;4.28;;;;;;;;;;6238778;28;20067;-60
2022/05/14 11:35:09;;;;;;;10.02;3.85;;;;;;;;;;6243782;28;20049;-61
2022/05/14 11:38:32;;;;;;;8.63;3.67;;;;;;;;;;6236353;28;20483;-61
2022/05/14 11:41:35;;;;;;;11.00;4.57;;;;;;;;;;6241793;28;20514;-62
2022/05/14 11:44:44;;;;;;;9.23;4.40;;;;;;;;;;6243715;28;20053;-61
2022/05/14 11:48:03;;;;;;;5.65;3.70;;;;;;;;;;6242618;28;20073;-61
2022/05/14 11:51:36;;;;;;;8.77;4.00;;;;;;;;;;6250740;28;20060;-61
2022/05/14 11:54:45;;;;;;;7.85;3.85;;;;;;;;;;6247052;28;20044;-60
2022/05/14 11:57:51;;;;;;;13.43;4.18;;;;;;;;;;6251551;28;20472;-60
2022/05/14 12:00:54;;;;;;;7.50;4.10;;;;;;;;;;6252487;28;20057;-60
2022/05/14 12:03:59;;;;;;;8.05;4.35;;;;;;;;;;6251146;28;20056;-60
2022/05/14 12:07:19;;;;;;;5.32;3.80;;;;;;;;;;6253206;28;20579;-60
2022/05/14 12:10:45;;;;;;;8.20;4.38;;;;;;;;;;6241745;28;20785;-60
2022/05/14 12:13:55;;;;;;;6.15;4.43;;;;;;;;;;6244329;28;20219;-61
2022/05/14 12:17:01;;;;;;;7.93;4.47;;;;;;;;;;6250449;28;20694;-60
2022/05/14 12:20:04;;;;;;;8.48;4.22;;;;;;;;;;6246989;28;20060;-61
2022/05/14 12:23:07;;;;;;;10.90;4.07;;;;;;;;;;6235017;28;20107;-60
2022/05/14 12:26:24;;;;;;;9.00;4.10;;;;;;;;;;6239223;28;20073;-61
2022/05/14 12:29:30;;;;;;;8.52;4.75;;;;;;;;;;6247788;28;20138;-61
2022/05/14 12:35:56;;;;;;;9.35;4.90;;;;;;;;;;6243994;28;20041;-60
2022/05/14 12:38:58;;;;;;;9.30;4.72;;;;;;;;;;6256976;28;20061;-61
2022/05/14 12:42:02;;;;;;;8.60;4.75;;;;;;;;;;6252338;28;20056;-59
2022/05/14 12:45:05;;;;;;;8.57;4.95;;;;;;;;;;6255363;28;20060;-60
2022/05/14 12:48:08;;;;;;;9.07;4.72;;;;;;;;;;6255804;28;20053;-61
2022/05/14 12:51:09;;;;;;;9.00;5.22;;;;;;;;;;6249212;28;20505;-61
2022/05/14 12:54:19;;;;;;;11.23;5.20;;;;;;;;;;6242446;28;20053;-61
2022/05/14 12:57:22;;;;;;;11.50;5.20;;;;;;;;;;6244260;28;20886;-61
2022/05/14 13:00:23;;;;;;;11.25;5.50;;;;;;;;;;6248822;28;20160;-60
2022/05/14 13:03:46;;;;;;;7.18;5.15;;;;;;;;;;6252098;28;20148;-62
2022/05/14 13:06:46;;;;;;;7.90;4.88;;;;;;;;;;6250140;28;20049;-59
2022/05/14 13:09:48;;;;;;;9.77;5.70;;;;;;;;;;6247758;28;20142;-62
2022/05/14 13:13:01;;;;;;;11.25;5.43;;;;;;;;;;6248661;28;20080;-61
2022/05/14 13:16:20;;;;;;;11.02;6.00;;;;;;;;;;6243891;28;20073;-61
2022/05/14 13:19:31;;;;;;;9.55;5.05;;;;;;;;;;6242939;28;20060;-61
2022/05/14 13:22:37;;;;;;;12.93;6.13;;;;;;;;;;6245862;28;20059;-61
2022/05/14 13:25:38;;;;;;;9.18;5.70;;;;;;;;;;6249317;28;20052;-61
2022/05/14 13:28:41;;;;;;;11.85;6.40;;;;;;;;;;6249710;28;20087;-61
2022/05/14 13:31:43;;;;;;;9.15;5.45;;;;;;;;;;6241583;28;20060;-61
2022/05/14 13:38:07;;;;;;;12.35;5.90;;;;;;;;;;6250468;28;20488;-61
2022/05/14 13:41:23;;;;;;;10.70;6.15;;;;;;;;;;6245318;28;20084;-61
2022/05/14 13:44:25;;;;;;;11.30;6.50;;;;;;;;;;6241677;28;21691;-61
2022/05/14 13:47:26;;;;;;;8.70;5.80;;;;;;;;;;6243635;28;20242;-61
2022/05/14 13:50:33;;;;;;;10.77;5.63;;;;;;;;;;6241102;28;20122;-61
2022/05/14 13:53:38;;;;;;;10.45;5.57;;;;;;;;;;6238171;28;20571;-61
2022/05/14 13:56:39;;;;;;;11.25;5.65;;;;;;;;;;6247635;28;20041;-61
2022/05/14 13:59:41;;;;;;;;;;;;;;;;;;6242348;28;20114;-61
2022/05/14 14:02:43;;;;;;;12.98;5.53;;;;;;;;;;6240952;28;19928;-61
2022/05/14 14:05:47;;;;;;;9.15;5.53;;;;;;;;;;6239404;28;20140;-61
2022/05/14 14:08:47;;;;;;;10.45;5.80;;;;;;;;;;6243190;28;20049;-61
2022/05/14 14:11:48;;;;;;;8.53;5.23;;;;;;;;;;6244510;28;20474;-62
2022/05/14 14:14:48;;;;;;;12.33;5.83;;;;;;;;;;6240807;28;20048;-61
2022/05/14 14:17:49;;;;;;;11.03;5.33;;;;;;;;;;6246522;28;20049;-61
2022/05/14 14:20:59;;;;;;;7.60;5.20;;;;;;;;;;6243511;28;20496;-61
2022/05/14 14:24:04;;;;;;;8.93;5.72;;;;;;;;;;6239148;28;20081;-61
2022/05/14 14:27:06;;;;;;;8.15;5.15;;;;;;;;;;6239802;28;20513;-61
2022/05/14 14:30:10;;;;;;;7.82;5.40;;;;;;;;;;6242628;28;20136;-62
2022/05/14 14:33:11;;;;;;;10.15;5.03;;;;;;;;;;6233744;28;20095;-61
2022/05/14 14:36:12;;;;;;;9.53;5.37;;;;;;;;;;6241992;28;20053;-61
2022/05/14 14:39:13;;;;;;;8.55;5.45;;;;;;;;;;6239566;28;20080;-61
2022/05/14 14:42:13;;;;;;;8.07;5.20;;;;;;;;;;6247681;28;20488;-63
2022/05/14 14:45:15;;;;;;;9.27;5.10;;;;;;;;;;6254633;28;20551;-60
2022/05/14 14:48:17;;;;;;;10.40;5.35;;;;;;;;;;6255227;28;20060;-63
2022/05/14 14:51:18;;;;;;;;;;;;;;;;;;6257115;28;20052;-57
2022/05/14 14:54:19;;;;;;;6.65;5.00;;;;;;;;;;6254979;28;19980;-61
2022/05/14 14:57:19;;;;;;;10.17;5.00;;;;;;;;;;6255192;28;20591;-58
2022/05/14 15:00:23;;;;;;;8.43;5.00;;;;;;;;;;6255308;28;20049;-65
2022/05/14 15:03:47;;;;;;;6.93;4.85;;;;;;;;;;6254218;28;20091;-60
2022/05/14 15:06:50;;;;;;;10.63;5.07;;;;;;;;;;6254905;28;20472;-57
2022/05/14 15:09:52;;;;;;;10.77;5.35;;;;;;;;;;6255527;28;20059;-59
2022/05/14 15:12:54;;;;;;;8.57;5.22;;;;;;;;;;6252060;28;20455;-60
2022/05/14 15:15:54;;;;;;;9.33;5.23;;;;;;;;;;6255768;28;21186;-56
2022/05/14 15:18:55;;;;;;;9.30;5.60;;;;;;;;;;6255750;28;20053;-59
2022/05/14 15:21:56;;;;;;;10.53;5.63;;;;;;;;;;6255539;28;20053;-56
2022/05/14 15:24:58;;;;;;;8.30;5.63;;;;;;;;;;6253721;28;20068;-60
2022/05/14 15:28:00;;;;;;;8.68;5.63;;;;;;;;;;6254826;28;20083;-59
2022/05/14 15:31:08;;;;;;;11.07;5.83;;;;;;;;;;6255291;28;20045;-59
2022/05/14 15:34:09;;;;;;;7.90;5.38;;;;;;;;;;6254932;28;20052;-54
2022/05/14 15:37:10;;;;;;;9.52;5.85;;;;;;;;;;6255810;28;20092;-57
2022/05/14 15:40:11;;;;;;;8.90;5.47;;;;;;;;;;6255972;28;20063;-59
2022/05/14 15:43:18;;;;;;;12.00;6.22;;;;;;;;;;6255537;28;20124;-54
2022/05/14 15:46:24;;;;;;;12.57;6.28;;;;;;;;;;6254555;28;20124;-53
2022/05/14 15:49:29;;;;;;;11.02;5.85;;;;;;;;;;6255507;28;20468;-56
2022/05/14 15:52:31;;;;;;;12.55;6.75;;;;;;;;;;6252661;28;20500;-58
2022/05/14 15:55:32;;;;;;;10.55;6.18;;;;;;;;;;6255420;28;20045;-60
2022/05/14 15:58:32;;;;;;;9.90;5.67;;;;;;;;;;6255774;28;20135;-58
2022/05/14 16:01:33;;;;;;;12.13;6.40;;;;;;;;;;6255853;28;20041;-57
2022/05/14 16:04:35;;;;;;;10.10;6.57;;;;;;;;;;6250782;28;20056;-59
2022/05/14 16:07:36;;;;;;;10.10;6.43;;;;;;;;;;6251470;28;20191;-62
2022/05/14 16:17:15;;;;;;;12.18;7.32;;;;;;;;;;6257754;28;20053;-57
2022/05/14 16:20:16;;;;;;;10.90;6.77;;;;;;;;;;6254853;28;20052;-58
2022/05/14 16:23:16;;;;;;;10.77;7.40;;;;;;;;;;6253413;28;20059;-58
2022/05/14 16:26:19;;;;;;;11.03;6.43;;;;;;;;;;6254305;28;20053;-59
2022/05/14 16:29:20;;;;;;;9.77;6.60;;;;;;;;;;6257394;28;20049;-60
2022/05/14 16:32:20;;;;;;;10.90;6.07;;;;;;;;;;6255199;28;20111;-51
2022/05/14 16:35:24;;;;;;;10.90;6.40;;;;;;;;;;6254150;28;20056;-59
2022/05/14 16:38:26;;;;;;;10.80;6.55;;;;;;;;;;6256562;28;20083;-58
2022/05/14 16:41:27;;;;;;;9.90;6.80;;;;;;;;;;6256014;28;20176;-59
2022/05/14 16:44:28;;;;;;;11.07;6.70;;;;;;;;;;6255019;28;20132;-57
2022/05/14 16:47:28;;;;;;;10.70;6.70;;;;;;;;;;6257059;28;20076;-57
2022/05/14 16:50:29;;;;;;;15.43;7.43;;;;;;;;;;6254354;28;20523;-58
2022/05/14 16:53:32;;;;;;;9.97;6.30;;;;;;;;;;6255545;28;20049;-59
2022/05/14 16:56:32;;;;;;;12.68;7.07;;;;;;;;;;6250659;28;20044;-62
2022/05/14 16:59:36;;;;;;;9.03;6.70;;;;;;;;;;6250633;28;20041;-63
2022/05/14 17:02:37;;;;;;;9.00;6.72;;;;;;;;;;6249933;28;20076;-62
2022/05/14 17:05:39;;;;;;;11.07;7.20;;;;;;;;;;6252399;28;20623;-61
2022/05/14 17:08:40;;;;;;;8.68;6.78;;;;;;;;;;6252133;28;21264;-61
2022/05/14 17:11:40;;;;;;;11.93;7.20;;;;;;;;;;6254082;28;20049;-59
2022/05/14 17:14:41;;;;;;;10.43;6.73;;;;;;;;;;6253752;28;20457;-60
2022/05/14 17:17:42;;;;;;;10.70;6.63;;;;;;;;;;6254070;28;20041;-62
2022/05/14 17:20:45;;;;;;;11.05;6.35;;;;;;;;;;6252703;28;20086;-61
2022/05/14 17:23:45;;;;;;;12.05;7.18;;;;;;;;;;6255872;28;20591;-58
2022/05/14 17:26:46;;;;;;;13.30;6.40;;;;;;;;;;6257788;28;20056;-59
2022/05/14 17:29:46;;;;;;;11.67;6.20;;;;;;;;;;6258096;28;20417;-56
2022/05/14 17:32:47;;;;;;;13.10;7.67;;;;;;;;;;6257899;28;20057;-56
2022/05/14 17:35:49;;;;;;;11.57;6.50;;;;;;;;;;6256792;28;20059;-57
2022/05/14 17:42:16;;;;;;;13.13;6.30;;;;;;;;;;6256179;28;19950;-59
2022/05/14 17:45:17;;;;;;;8.93;6.53;;;;;;;;;;6257632;28;20134;-59
2022/05/14 17:48:17;;;;;;;12.10;6.80;;;;;;;;;;6257468;28;20063;-59
2022/05/14 17:51:18;;;;;;;9.87;7.50;;;;;;;;;;6265297;28;20052;-56
2022/05/14 17:54:18;;;;;;;13.77;6.90;;;;;;;;;;6262938;28;20048;-58
2022/05/14 17:57:19;;;;;;;12.63;7.13;;;;;;;;;;6263214;28;20146;-58
2022/05/14 18:00:23;;;;;;;8.43;6.57;;;;;;;;;;6267755;28;20057;-59
2022/05/14 18:03:24;;;;;;;12.82;7.00;;;;;;;;;;6259971;28;20598;-57
2022/05/14 18:06:25;;;;;;;13.50;7.10;;;;;;;;;;6259505;28;20095;-58
2022/05/14 18:09:29;;;;;;;16.33;7.00;;;;;;;;;;6262466;28;20068;-59
2022/05/14 18:12:29;;;;;;;12.15;6.35;;;;;;;;;;6261097;28;20156;-60
2022/05/14 18:15:30;;;;;;;7.60;6.23;;;;;;;;;;6256878;28;20982;-55
2022/05/14 18:18:31;;;;;;;10.27;6.83;;;;;;;;;;6255689;28;20124;-57
2022/05/14 18:21:31;;;;;;;12.10;6.97;;;;;;;;;;6261484;28;20407;-59
2022/05/14 18:24:32;;;;;;;13.13;7.40;;;;;;;;;;6262577;28;20498;-57
2022/05/14 18:27:37;;;;;;;17.80;8.17;;;;;;;;;;6262882;28;20153;-57
2022/05/14 18:30:38;;;;;;;16.27;8.32;;;;;;;;;;6262351;28;20043;-63
2022/05/14 18:33:42;;;;;;;16.05;8.93;;;;;;;;;;6258689;28;20044;-59
2022/05/14 18:36:46;;;;;;;15.10;8.55;;;;;;;;;;6256006;28;20080;-59
2022/05/14 18:39:52;;;;;;;13.82;8.38;;;;;;;;;;6259098;28;20080;-58
2022/05/14 18:42:54;;;;;;;15.88;8.75;;;;;;;;;;6258137;28;20058;-58
2022/05/14 18:45:55;;;;;;;;;;;;;;;;;;6256627;28;20193;-58
2022/05/14 18:48:56;;;;;;;15.98;8.85;;;;;;;;;;6252052;28;20382;-59